createdAt,value
2022-11-20T00:02:02.295Z,0.70
2022-11-20T00:04:29.067Z,0.80
2022-11-20T00:06:55.924Z,0.80
2022-11-20T00:09:23.060Z,0.80
2022-11-20T00:11:49.991Z,0.70
2022-11-20T00:14:16.791Z,0.70
2022-11-20T00:16:43.674Z,0.60
2022-11-20T00:19:10.845Z,0.60
2022-11-20T00:21:37.613Z,0.50
2022-11-20T00:24:04.528Z,0.60
2022-11-20T00:26:31.390Z,0.40
2022-11-20T00:29:02.282Z,0.30
2022-11-20T00:31:30.630Z,0.30
2022-11-20T00:33:57.828Z,0.30
2022-11-20T00:36:27.974Z,0.20
2022-11-20T00:38:56.135Z,0.20
2022-11-20T00:41:23.917Z,0.20
2022-11-20T00:43:52.464Z,0.20
2022-11-20T00:46:22.340Z,0.20
2022-11-20T00:48:49.949Z,0.30
2022-11-20T00:51:22.179Z,0.40
2022-11-20T00:53:49.644Z,0.40
2022-11-20T00:56:18.559Z,0.30
2022-11-20T00:58:48.497Z,0.30
2022-11-20T01:01:24.009Z,0.20
2022-11-20T01:03:52.612Z,0.30
2022-11-20T01:06:20.620Z,0.40
2022-11-20T01:08:48.367Z,0.10
2022-11-20T01:11:17.593Z,0.10
2022-11-20T01:13:45.710Z,0.10
2022-11-20T01:16:19.586Z,0.30
2022-11-20T01:18:48.848Z,0.10
2022-11-20T01:21:24.584Z,0.10
2022-11-20T01:23:52.297Z,0.10
2022-11-20T01:26:21.941Z,0.20
2022-11-20T01:28:49.653Z,0.30
2022-11-20T01:31:25.638Z,0.30
2022-11-20T01:33:58.208Z,0.20
2022-11-20T01:36:28.109Z,0.10
2022-11-20T01:38:56.215Z,0.20
2022-11-20T01:41:26.051Z,0.20
2022-11-20T01:43:52.835Z,0.20
2022-11-20T01:46:20.288Z,0.20
2022-11-20T01:49:11.875Z,0.10
2022-11-20T01:51:59.783Z,0.10
2022-11-20T01:54:39.432Z,0.20
2022-11-20T01:57:08.170Z,0.20
2022-11-20T01:59:35.603Z,0.20
2022-11-20T02:02:02.581Z,0.30
2022-11-20T02:04:29.478Z,0.30
2022-11-20T02:07:02.638Z,0.40
2022-11-20T02:09:29.823Z,0.50
2022-11-20T02:11:58.548Z,0.40
2022-11-20T02:14:26.253Z,0.50
2022-11-20T02:16:54.136Z,0.60
2022-11-20T02:19:32.580Z,0.40
2022-11-20T02:22:27.772Z,0.40
2022-11-20T02:24:54.623Z,0.50
2022-11-20T02:27:21.875Z,0.60
2022-11-20T02:30:15.254Z,0.50
2022-11-20T02:32:42.070Z,0.40
2022-11-20T02:35:11.153Z,0.30
2022-11-20T02:37:40.562Z,0.30
2022-11-20T02:40:08.200Z,0.40
2022-11-20T02:42:35.271Z,0.30
2022-11-20T02:45:02.062Z,0.50
2022-11-20T02:47:28.821Z,0.30
2022-11-20T02:49:55.640Z,0.40
2022-11-20T02:52:22.572Z,0.40
2022-11-20T02:54:49.343Z,0.30
2022-11-20T02:57:16.242Z,0.30
2022-11-20T02:59:43.013Z,0.40
2022-11-20T03:02:10.102Z,0.40
2022-11-20T03:04:36.872Z,0.40
2022-11-20T03:07:04.481Z,0.30
2022-11-20T03:09:31.435Z,0.40
2022-11-20T03:11:58.221Z,0.40
2022-11-20T03:14:25.217Z,0.50
2022-11-20T03:16:51.972Z,0.50
2022-11-20T03:19:19.125Z,0.40
2022-11-20T03:21:46.134Z,0.40
2022-11-20T03:24:13.937Z,0.40
2022-11-20T03:26:41.389Z,0.60
2022-11-20T03:29:08.173Z,0.60
2022-11-20T03:31:37.704Z,0.50
2022-11-20T03:34:05.786Z,0.70
2022-11-20T03:36:35.325Z,0.70
2022-11-20T03:39:02.141Z,0.50
2022-11-20T03:41:31.475Z,0.70
2022-11-20T03:44:01.829Z,0.80
2022-11-20T03:46:29.709Z,0.60
2022-11-20T03:48:56.898Z,0.50
2022-11-20T03:51:26.419Z,0.50
2022-11-20T03:53:55.893Z,0.40
2022-11-20T03:56:32.514Z,0.40
2022-11-20T03:59:00.122Z,0.30
2022-11-20T04:01:29.617Z,0.20
2022-11-20T04:03:57.646Z,0.30
2022-11-20T04:06:30.100Z,0.30
2022-11-20T04:08:58.835Z,0.30
2022-11-20T04:11:33.915Z,0.40
2022-11-20T04:14:02.664Z,0.30
2022-11-20T04:16:35.010Z,0.20
2022-11-20T04:19:04.499Z,0.40
2022-11-20T04:21:31.888Z,0.40
2022-11-20T04:23:59.338Z,0.50
2022-11-20T04:26:28.979Z,0.50
2022-11-20T04:28:55.951Z,0.50
2022-11-20T04:31:25.106Z,0.50
2022-11-20T04:33:52.105Z,0.50
2022-11-20T04:36:21.319Z,0.40
2022-11-20T04:38:56.528Z,0.70
2022-11-20T04:41:29.465Z,0.90
2022-11-20T04:43:58.991Z,0.70
2022-11-20T04:46:26.921Z,0.70
2022-11-20T04:48:54.174Z,0.60
2022-11-20T04:51:21.062Z,0.60
2022-11-20T04:53:48.917Z,0.60
2022-11-20T04:56:16.189Z,0.60
2022-11-20T04:58:43.602Z,0.60
2022-11-20T05:01:15.772Z,0.60
2022-11-20T05:03:43.917Z,0.60
2022-11-20T05:06:12.888Z,0.50
2022-11-20T05:08:39.910Z,0.50
2022-11-20T05:11:09.650Z,0.50
2022-11-20T05:13:37.331Z,0.50
2022-11-20T05:16:12.222Z,0.50
2022-11-20T05:18:39.963Z,0.40
2022-11-20T05:21:07.405Z,0.40
2022-11-20T05:23:34.343Z,0.40
2022-11-20T05:26:02.140Z,0.40
2022-11-20T05:28:30.431Z,0.40
2022-11-20T05:30:57.412Z,0.40
2022-11-20T05:33:24.161Z,0.50
2022-11-20T05:35:50.992Z,0.30
2022-11-20T05:38:17.730Z,0.30
2022-11-20T05:40:44.656Z,0.40
2022-11-20T05:43:11.529Z,0.40
2022-11-20T05:45:38.364Z,0.40
2022-11-20T05:48:05.260Z,0.40
2022-11-20T05:50:32.032Z,0.40
2022-11-20T05:53:01.954Z,0.60
2022-11-20T05:55:28.903Z,0.60
2022-11-20T05:57:56.262Z,0.60
2022-11-20T06:00:23.522Z,0.60
2022-11-20T06:02:50.560Z,0.50
2022-11-20T06:05:17.826Z,0.60
2022-11-20T06:07:44.850Z,0.50
2022-11-20T06:10:12.373Z,0.60
2022-11-20T06:12:39.132Z,0.50
2022-11-20T06:15:06.835Z,0.50
2022-11-20T06:17:33.594Z,0.60
2022-11-20T06:20:00.498Z,0.60
2022-11-20T06:22:27.279Z,0.70
2022-11-20T06:24:54.228Z,0.70
2022-11-20T06:27:21.084Z,0.60
2022-11-20T06:29:47.884Z,0.80
2022-11-20T06:32:14.704Z,0.80
2022-11-20T06:34:41.432Z,0.60
2022-11-20T06:37:08.235Z,0.90
2022-11-20T06:39:35.082Z,0.90
2022-11-20T06:42:01.929Z,0.90
2022-11-20T06:44:28.686Z,0.80
2022-11-20T06:46:55.468Z,0.80
2022-11-20T06:49:22.461Z,0.80
2022-11-20T06:51:49.379Z,0.90
2022-11-20T06:54:16.243Z,1.00
2022-11-20T06:56:42.973Z,1.00
2022-11-20T06:59:09.739Z,1.30
2022-11-20T07:01:36.545Z,1.30
2022-11-20T07:04:03.412Z,1.30
2022-11-20T07:06:30.219Z,1.30
2022-11-20T07:08:57.061Z,1.40
2022-11-20T07:11:24.140Z,1.40
2022-11-20T07:13:51.182Z,1.30
2022-11-20T07:16:18.239Z,1.30
2022-11-20T07:18:50.122Z,1.20
2022-11-20T07:21:17.895Z,1.20
2022-11-20T07:23:44.652Z,1.40
2022-11-20T07:26:12.208Z,1.20
2022-11-20T07:28:39.642Z,1.30
2022-11-20T07:31:06.821Z,1.50
2022-11-20T07:33:33.636Z,1.30
2022-11-20T07:36:00.872Z,1.30
2022-11-20T07:38:28.261Z,1.30
2022-11-20T07:40:56.321Z,1.50
2022-11-20T07:43:23.087Z,1.50
2022-11-20T07:45:49.836Z,1.50
2022-11-20T07:48:16.598Z,1.50
2022-11-20T07:50:43.449Z,1.50
2022-11-20T07:53:10.203Z,1.60
2022-11-20T07:55:37.065Z,1.60
2022-11-20T07:58:03.858Z,1.60
2022-11-20T08:00:30.731Z,1.70
2022-11-20T08:02:57.566Z,1.90
2022-11-20T08:05:24.402Z,1.80
2022-11-20T08:07:51.323Z,2.00
2022-11-20T08:10:18.213Z,1.80
2022-11-20T08:12:52.755Z,1.90
2022-11-20T08:15:19.556Z,1.90
2022-11-20T08:18:02.313Z,2.00
2022-11-20T08:20:33.848Z,2.00
2022-11-20T08:23:01.973Z,1.90
2022-11-20T08:25:30.351Z,1.90
2022-11-20T08:28:04.939Z,1.90
2022-11-20T08:30:36.883Z,1.90
2022-11-20T08:33:06.317Z,1.70
2022-11-20T08:35:37.453Z,1.80
2022-11-20T08:38:04.548Z,2.00
2022-11-20T08:40:31.497Z,2.00
2022-11-20T08:42:58.602Z,2.10
2022-11-20T08:45:28.444Z,2.10
2022-11-20T08:48:05.577Z,2.00
2022-11-20T08:50:33.017Z,2.10
2022-11-20T08:53:06.747Z,2.30
2022-11-20T08:55:34.226Z,2.30
2022-11-20T08:58:05.269Z,2.30
2022-11-20T09:00:32.549Z,2.20
2022-11-20T09:02:59.476Z,2.20
2022-11-20T09:05:26.322Z,2.10
2022-11-20T09:07:53.375Z,2.30
2022-11-20T09:10:24.671Z,2.40
2022-11-20T09:12:52.474Z,2.30
2022-11-20T09:15:19.989Z,2.40
2022-11-20T09:18:00.476Z,2.30
2022-11-20T09:20:29.153Z,2.40
2022-11-20T09:22:56.604Z,2.30
2022-11-20T09:25:24.020Z,2.30
2022-11-20T09:27:59.533Z,2.30
2022-11-20T09:30:27.381Z,2.30
2022-11-20T09:32:54.307Z,2.40
2022-11-20T09:35:21.195Z,2.40
2022-11-20T09:37:47.939Z,2.50
2022-11-20T09:40:22.526Z,2.50
2022-11-20T09:43:19.924Z,2.50
2022-11-20T09:45:57.820Z,2.60
2022-11-20T09:48:33.773Z,2.70
2022-11-20T09:51:13.816Z,2.80
2022-11-20T09:53:47.307Z,3.00
2022-11-20T09:56:22.918Z,3.00
2022-11-20T09:58:55.616Z,3.10
2022-11-20T10:01:27.369Z,3.30
2022-11-20T10:04:12.853Z,3.20
2022-11-20T10:07:30.868Z,3.30
2022-11-20T10:09:55.651Z,3.20
2022-11-20T10:12:34.889Z,3.20
2022-11-20T10:15:17.260Z,3.20
2022-11-20T10:18:08.006Z,3.20
2022-11-20T10:21:22.971Z,3.30
2022-11-20T10:24:23.757Z,3.40
2022-11-20T10:27:18.732Z,3.40
2022-11-20T10:30:00.739Z,3.40
2022-11-20T10:32:37.402Z,3.30
2022-11-20T10:35:25.508Z,3.40
2022-11-20T10:37:59.405Z,3.50
2022-11-20T10:40:43.791Z,3.60
2022-11-20T10:43:36.753Z,3.50
2022-11-20T10:46:09.875Z,3.60
2022-11-20T10:48:39.443Z,3.40
2022-11-20T10:51:06.411Z,3.60
2022-11-20T10:53:51.765Z,3.60
2022-11-20T10:56:40.910Z,3.70
2022-11-20T10:59:39.569Z,3.60
2022-11-20T11:02:17.469Z,3.60
2022-11-20T11:04:50.590Z,3.80
2022-11-20T11:07:25.114Z,3.70
2022-11-20T11:09:54.671Z,3.70
2022-11-20T11:12:24.916Z,3.80
2022-11-20T11:14:54.728Z,4.00
2022-11-20T11:17:30.605Z,4.00
2022-11-20T11:20:06.675Z,4.20
2022-11-20T11:22:36.049Z,4.20
2022-11-20T11:25:03.315Z,4.20
2022-11-20T11:27:30.213Z,4.30
2022-11-20T11:30:18.523Z,4.40
2022-11-20T11:32:45.599Z,4.30
2022-11-20T11:35:27.706Z,4.60
2022-11-20T11:40:35.459Z,4.60
2022-11-20T11:43:06.145Z,4.60
2022-11-20T11:45:32.930Z,4.60
2022-11-20T11:48:04.297Z,4.60
2022-11-20T11:50:31.252Z,4.80
2022-11-20T11:53:05.032Z,4.80
2022-11-20T11:55:31.763Z,4.70
2022-11-20T11:58:32.122Z,4.80
2022-11-20T12:01:08.711Z,4.90
2022-11-20T12:03:40.779Z,4.90
2022-11-20T12:06:14.709Z,5.00
2022-11-20T12:08:56.940Z,5.00
2022-11-20T12:12:15.193Z,5.00
2022-11-20T12:14:47.101Z,5.10
2022-11-20T12:17:15.112Z,5.10
2022-11-20T12:19:42.535Z,5.10
2022-11-20T12:22:44.844Z,5.20
2022-11-20T12:25:20.679Z,5.20
2022-11-20T12:28:00.076Z,5.10
2022-11-20T12:30:27.585Z,5.10
2022-11-20T12:33:31.845Z,5.10
2022-11-20T12:36:21.806Z,5.20
2022-11-20T14:57:24.675Z,3.80
2022-11-20T14:59:51.536Z,3.80
2022-11-20T15:02:19.682Z,3.60
2022-11-20T15:04:52.531Z,3.50
2022-11-20T15:07:37.971Z,3.60
2022-11-20T15:10:08.020Z,3.40
2022-11-20T15:12:54.646Z,3.30
2022-11-20T15:15:43.751Z,3.30
2022-11-20T15:18:20.513Z,3.20
2022-11-20T15:20:48.181Z,3.10
2022-11-20T15:23:19.849Z,3.10
2022-11-20T15:25:48.586Z,3.00
2022-11-20T15:28:21.236Z,3.00
2022-11-20T15:30:50.496Z,2.90
2022-11-20T15:33:18.824Z,2.80
2022-11-20T15:35:45.796Z,2.90
2022-11-20T15:38:13.031Z,2.80
2022-11-20T15:40:40.276Z,2.80
2022-11-20T15:43:12.975Z,2.80
2022-11-20T15:45:53.141Z,2.70
2022-11-20T15:48:27.874Z,2.80
2022-11-20T15:51:13.249Z,2.70
2022-11-20T15:53:42.289Z,2.40
2022-11-20T15:56:13.656Z,2.60
2022-11-20T15:58:42.626Z,2.50
2022-11-20T16:01:15.725Z,2.60
2022-11-20T16:03:43.529Z,2.20
2022-11-20T16:06:10.723Z,2.30
2022-11-20T16:08:38.201Z,2.30
2022-11-20T16:11:05.955Z,1.90
2022-11-20T16:13:35.632Z,2.10
2022-11-20T16:16:06.262Z,1.90
2022-11-20T16:18:34.597Z,1.70
2022-11-20T16:21:02.274Z,1.70
2022-11-20T16:23:29.521Z,1.70
2022-11-20T16:25:56.291Z,1.40
2022-11-20T16:28:23.501Z,1.60
2022-11-20T16:30:50.729Z,1.70
2022-11-20T16:33:18.867Z,1.70
2022-11-20T16:35:46.421Z,1.60
2022-11-20T16:38:13.780Z,1.50
2022-11-20T16:40:41.041Z,1.60
2022-11-20T16:43:14.656Z,1.60
2022-11-20T16:45:46.046Z,1.60
2022-11-20T16:48:16.076Z,1.60
2022-11-20T16:50:51.968Z,1.40
2022-11-20T16:53:21.013Z,1.50
2022-11-20T16:55:48.911Z,1.20
2022-11-20T16:58:16.035Z,1.40
2022-11-20T17:00:48.371Z,1.40
2022-11-20T17:03:21.461Z,1.30
2022-11-20T17:05:53.562Z,1.20
2022-11-20T17:08:20.762Z,1.20
2022-11-20T17:10:48.006Z,1.30
2022-11-20T17:13:14.831Z,1.50
2022-11-20T17:15:42.029Z,1.40
2022-11-20T17:18:09.522Z,1.20
2022-11-20T17:20:38.429Z,1.20
2022-11-20T17:23:05.799Z,1.30
2022-11-20T17:25:33.897Z,1.20
2022-11-20T17:28:01.168Z,1.20
2022-11-20T17:30:28.643Z,1.30
2022-11-20T17:32:55.963Z,1.20
2022-11-20T17:35:23.726Z,1.20
2022-11-20T17:37:51.135Z,1.30
2022-11-20T17:40:20.928Z,1.30
2022-11-20T17:42:54.134Z,1.40
2022-11-20T17:45:21.467Z,1.30
2022-11-20T17:47:53.474Z,1.10
2022-11-20T17:50:20.375Z,1.20
2022-11-20T17:52:47.690Z,0.80
2022-11-20T17:55:14.997Z,0.90
2022-11-20T17:57:43.032Z,1.00
2022-11-20T18:00:10.719Z,1.00
2022-11-20T18:02:37.956Z,1.00
2022-11-20T18:05:05.924Z,0.90
2022-11-20T18:07:37.059Z,0.70
2022-11-20T18:10:08.738Z,0.60
2022-11-20T18:12:35.716Z,0.80
2022-11-20T18:15:03.071Z,0.70
2022-11-20T18:17:30.434Z,0.80
2022-11-20T18:20:21.770Z,0.60
2022-11-20T18:22:46.050Z,0.30
2022-11-20T18:25:14.402Z,0.50
2022-11-20T18:27:42.093Z,0.60
2022-11-20T18:30:11.118Z,0.60
2022-11-20T18:32:38.314Z,0.70
2022-11-20T18:35:06.028Z,0.60
2022-11-20T18:37:33.000Z,0.70
2022-11-20T18:40:00.212Z,0.50
2022-11-20T18:42:28.798Z,0.40
2022-11-20T18:44:56.059Z,0.70
2022-11-20T18:47:29.379Z,0.50
2022-11-20T18:49:59.161Z,0.30
2022-11-20T18:52:41.143Z,-0.10
2022-11-20T18:55:08.633Z,0.00
2022-11-20T18:57:35.959Z,-0.10
2022-11-20T19:00:08.814Z,0.00
2022-11-20T19:02:41.700Z,0.10
2022-11-20T19:05:13.010Z,0.10
2022-11-20T19:07:40.958Z,0.10
2022-11-20T19:10:08.650Z,0.20
2022-11-20T19:12:37.478Z,0.10
2022-11-20T19:15:05.410Z,0.30
2022-11-20T19:17:33.546Z,0.30
2022-11-20T19:20:00.880Z,0.30
2022-11-20T19:22:28.851Z,0.40
2022-11-20T19:24:55.807Z,0.20
2022-11-20T19:27:23.181Z,0.30
2022-11-20T19:29:50.545Z,0.20
2022-11-20T19:32:17.847Z,0.30
2022-11-20T19:34:45.125Z,0.30
2022-11-20T19:37:13.490Z,0.20
2022-11-20T19:39:40.358Z,0.40
2022-11-20T19:42:07.523Z,0.30
2022-11-20T19:44:35.024Z,0.30
2022-11-20T19:47:02.264Z,0.30
2022-11-20T19:49:29.537Z,0.50
2022-11-20T19:51:56.925Z,0.30
2022-11-20T19:54:24.247Z,0.10
2022-11-20T19:56:53.937Z,0.10
2022-11-20T19:59:22.187Z,-0.10
2022-11-20T20:01:49.978Z,-0.20
2022-11-20T20:04:17.291Z,-0.10
2022-11-20T20:06:44.900Z,-0.10
2022-11-20T20:09:30.685Z,0.00
2022-11-20T20:11:58.122Z,0.30
2022-11-20T20:14:26.150Z,0.30
2022-11-20T20:16:53.468Z,0.30
2022-11-20T20:19:21.151Z,0.30
2022-11-20T20:21:49.126Z,0.40
2022-11-20T20:24:16.608Z,0.50
2022-11-20T20:26:46.990Z,0.60
2022-11-20T20:29:14.406Z,0.80
2022-11-20T20:31:41.723Z,0.90
2022-11-20T20:34:09.463Z,0.90
2022-11-20T20:36:37.084Z,0.80
2022-11-20T20:39:04.626Z,0.80
2022-11-20T20:41:32.278Z,0.60
2022-11-20T20:43:59.365Z,0.40
2022-11-20T20:46:27.762Z,0.20
2022-11-20T20:48:55.228Z,0.30
2022-11-20T20:51:23.427Z,0.40
2022-11-20T20:53:51.462Z,0.10
2022-11-20T20:56:19.628Z,0.20
2022-11-20T20:58:46.918Z,0.10
2022-11-20T21:01:16.278Z,0.30
2022-11-20T21:03:43.414Z,0.10
2022-11-20T21:06:11.447Z,0.40
2022-11-20T21:08:42.808Z,0.30
2022-11-20T21:11:14.458Z,0.30
2022-11-20T21:13:43.637Z,0.20
2022-11-20T21:16:12.080Z,0.20
2022-11-20T21:18:40.134Z,0.20
2022-11-20T21:21:09.708Z,0.30
2022-11-20T21:23:36.925Z,0.20
2022-11-20T21:26:07.457Z,0.10
2022-11-20T21:28:36.162Z,0.10
2022-11-20T21:31:24.383Z,0.20
2022-11-20T21:33:53.554Z,0.00
2022-11-20T21:36:24.509Z,0.10
2022-11-20T21:38:52.536Z,-0.30
2022-11-20T21:41:19.488Z,0.00
2022-11-20T21:43:51.562Z,0.10
2022-11-20T21:46:26.212Z,0.10
2022-11-20T21:48:53.134Z,0.00
2022-11-20T21:51:22.043Z,-0.10
2022-11-20T21:53:49.903Z,-0.30
2022-11-20T21:56:20.582Z,-0.20
2022-11-20T21:58:48.337Z,-0.40
2022-11-20T22:01:20.123Z,-0.60
2022-11-20T22:03:52.271Z,-0.50
2022-11-20T22:06:20.401Z,-0.20
2022-11-20T22:08:47.951Z,-0.10
2022-11-20T22:11:17.738Z,-0.20
2022-11-20T22:13:44.692Z,-0.20
2022-11-20T22:16:12.150Z,-0.10
2022-11-20T22:18:50.105Z,-0.20
2022-11-20T22:21:18.844Z,-0.50
2022-11-20T22:23:45.820Z,-0.50
2022-11-20T22:26:14.681Z,-0.50
2022-11-20T22:28:41.832Z,-0.30
2022-11-20T22:31:10.547Z,-0.30
2022-11-20T22:33:38.831Z,-0.30
2022-11-20T22:36:14.496Z,-0.50
2022-11-20T22:38:41.598Z,-0.20
2022-11-20T22:41:10.709Z,-0.20
2022-11-20T22:43:38.376Z,0.00
2022-11-20T22:46:16.258Z,-0.10
2022-11-20T22:48:51.749Z,0.00
2022-11-20T22:51:20.398Z,0.00
2022-11-20T22:53:48.005Z,-0.20
2022-11-20T22:56:15.911Z,0.00
2022-11-20T22:58:47.441Z,-0.10
2022-11-20T23:01:19.752Z,-0.20
2022-11-20T23:03:49.439Z,-0.60
2022-11-20T23:06:17.956Z,-0.60
2022-11-20T23:08:45.703Z,-0.50
2022-11-20T23:11:15.665Z,-0.70
2022-11-20T23:13:43.281Z,-0.50
2022-11-20T23:16:12.923Z,-0.70
2022-11-20T23:18:40.268Z,-0.60
2022-11-20T23:21:12.096Z,-0.50
2022-11-20T23:23:39.957Z,-0.40
2022-11-20T23:26:10.356Z,-0.40
2022-11-20T23:28:38.065Z,-0.40
2022-11-20T23:31:05.585Z,-0.40
2022-11-20T23:33:34.865Z,-0.60
2022-11-20T23:36:01.711Z,-0.70
2022-11-20T23:38:28.467Z,-0.70
2022-11-20T23:40:55.245Z,-1.10
2022-11-20T23:43:22.739Z,-0.90
2022-11-20T23:45:52.095Z,-0.80
2022-11-20T23:48:20.477Z,-0.70
2022-11-20T23:50:47.376Z,-0.90
2022-11-20T23:53:14.780Z,-0.60
2022-11-20T23:56:02.617Z,-0.80
2022-11-20T23:58:34.900Z,-0.90
